Time;durP1;ratioP1;P1;durP2;ratioP2;P2;SDS_P1;SDS_P2;PMS_P1;PMS_P2;Temp;Humidity;BMP_temperature;BMP_pressure;BME280_temperature;BME280_humidity;BME280_pressure;Samples;Min_cycle;Max_cycle;Signal;HPM_P1;HPM_P2
2022/01/13 00:00:24;;;;;;;2.50;0.77;;;;;;;;;;5055971;28;20021;-73
2022/01/13 00:02:51;;;;;;;3.65;1.05;;;;;;;;;;5054472;28;20021;-73
2022/01/13 00:05:25;;;;;;;3.53;1.15;;;;;;;;;;5054547;28;20043;-74
2022/01/13 00:07:55;;;;;;;3.05;0.98;;;;;;;;;;5055798;28;20024;-73
2022/01/13 00:10:23;;;;;;;3.25;1.10;;;;;;;;;;5054949;28;20037;-73
2022/01/13 00:12:57;;;;;;;2.72;0.80;;;;;;;;;;5055663;28;20037;-72
2022/01/13 00:15:38;;;;;;;2.88;0.90;;;;;;;;;;5054495;28;20074;-72
2022/01/13 00:18:17;;;;;;;2.20;0.63;;;;;;;;;;5054264;28;20374;-73
2022/01/13 00:26:14;;;;;;;3.40;0.77;;;;;;;;;;5055531;28;20086;-73
2022/01/13 00:28:44;;;;;;;1.35;0.70;;;;;;;;;;5054178;28;20178;-72
2022/01/13 00:31:11;;;;;;;3.85;0.88;;;;;;;;;;5055126;28;20021;-72
2022/01/13 00:33:44;;;;;;;3.13;0.68;;;;;;;;;;5054058;28;20034;-72
2022/01/13 00:36:11;;;;;;;4.18;0.68;;;;;;;;;;5055419;28;20389;-71
2022/01/13 00:38:38;;;;;;;2.67;0.70;;;;;;;;;;5053939;28;20025;-73
2022/01/13 00:41:07;;;;;;;3.50;0.77;;;;;;;;;;5054995;28;20032;-71
2022/01/13 00:43:39;;;;;;;3.92;0.98;;;;;;;;;;5053504;28;20482;-72
2022/01/13 00:46:07;;;;;;;2.50;0.90;;;;;;;;;;5055093;28;20024;-73
2022/01/13 00:48:34;;;;;;;4.72;0.95;;;;;;;;;;5053538;28;20040;-73
2022/01/13 00:51:01;;;;;;;4.10;1.08;;;;;;;;;;5053481;28;20025;-73
2022/01/13 00:53:28;;;;;;;3.75;1.00;;;;;;;;;;5053462;28;20029;-74
2022/01/13 00:55:58;;;;;;;3.22;0.95;;;;;;;;;;5054711;28;20024;-74
2022/01/13 00:58:26;;;;;;;;;;;;;;;;;;5053754;28;20596;-73
2022/01/13 01:00:53;;;;;;;5.07;1.20;;;;;;;;;;5054651;28;19905;-73
2022/01/13 01:03:20;;;;;;;4.22;1.30;;;;;;;;;;5053071;28;20041;-72
2022/01/13 01:05:48;;;;;;;4.30;1.13;;;;;;;;;;5053211;28;20478;-74
2022/01/13 01:08:15;;;;;;;6.63;1.60;;;;;;;;;;5054442;28;20474;-73
2022/01/13 01:10:45;;;;;;;4.05;1.05;;;;;;;;;;5054241;28;20319;-74
2022/01/13 01:13:14;;;;;;;3.33;1.00;;;;;;;;;;5053024;28;20032;-73
2022/01/13 01:15:46;;;;;;;3.67;1.23;;;;;;;;;;5052901;28;20052;-75
2022/01/13 01:23:57;;;;;;;4.72;1.40;;;;;;;;;;5054467;28;20108;-74
2022/01/13 01:26:42;;;;;;;4.18;1.40;;;;;;;;;;5053103;28;20055;-74
2022/01/13 01:29:21;;;;;;;6.28;1.50;;;;;;;;;;5053175;28;20044;-74
2022/01/13 01:31:51;;;;;;;5.03;1.77;;;;;;;;;;5052860;28;20037;-74
2022/01/13 01:37:14;;;;;;;6.25;1.70;;;;;;;;;;5053553;28;20077;-73
2022/01/13 01:39:41;;;;;;;5.53;1.70;;;;;;;;;;5054189;28;20100;-73
2022/01/13 01:42:08;;;;;;;5.00;1.73;;;;;;;;;;5054098;28;20103;-73
2022/01/13 01:44:40;;;;;;;3.88;1.67;;;;;;;;;;5053956;28;20024;-72
2022/01/13 01:47:10;;;;;;;5.55;1.77;;;;;;;;;;5052751;28;20037;-73
2022/01/13 01:49:42;;;;;;;7.82;2.58;;;;;;;;;;5052725;28;20079;-72
2022/01/13 01:52:11;;;;;;;8.05;3.00;;;;;;;;;;5053738;28;20025;-73
2022/01/13 01:54:38;;;;;;;9.40;3.72;;;;;;;;;;5052663;28;20032;-73
2022/01/13 01:57:06;;;;;;;11.93;4.50;;;;;;;;;;5053955;28;20020;-75
2022/01/13 01:59:36;;;;;;;9.57;3.28;;;;;;;;;;5052609;28;20025;-75
2022/01/13 02:02:04;;;;;;;12.20;4.03;;;;;;;;;;5052542;28;20024;-75
2022/01/13 02:04:31;;;;;;;6.95;2.70;;;;;;;;;;5053432;28;20037;-75
2022/01/13 02:07:05;;;;;;;8.60;2.80;;;;;;;;;;5052496;28;20033;-73
2022/01/13 02:09:36;;;;;;;8.80;3.28;;;;;;;;;;5052563;28;20025;-76
2022/01/13 02:12:07;;;;;;;13.80;3.10;;;;;;;;;;5055212;28;20490;-78
2022/01/13 02:14:46;;;;;;;10.55;2.53;;;;;;;;;;5056294;28;20507;-78
2022/01/13 02:17:21;;;;;;;9.40;2.60;;;;;;;;;;5060167;28;20028;-78
2022/01/13 02:19:49;;;;;;;9.50;1.60;;;;;;;;;;5057066;28;20028;-77
2022/01/13 02:22:17;;;;;;;14.50;2.38;;;;;;;;;;5062596;28;20017;-77
2022/01/13 02:24:44;;;;;;;13.38;1.90;;;;;;;;;;5045348;28;20025;-77
2022/01/13 02:27:11;;;;;;;7.93;1.05;;;;;;;;;;5059285;28;20100;-77
2022/01/13 02:29:38;;;;;;;13.77;1.33;;;;;;;;;;5055097;28;20029;-78
2022/01/13 02:32:06;;;;;;;4.45;0.88;;;;;;;;;;5055812;28;20021;-78
2022/01/13 02:34:33;;;;;;;4.63;0.88;;;;;;;;;;5058510;28;20474;-78
2022/01/13 02:37:01;;;;;;;6.50;1.00;;;;;;;;;;5059823;28;20460;-79
2022/01/13 02:39:28;;;;;;;1.88;1.00;;;;;;;;;;5056010;28;20045;-77
2022/01/13 02:42:00;;;;;;;3.47;1.20;;;;;;;;;;5056288;28;20025;-75
2022/01/13 02:44:27;;;;;;;6.00;2.13;;;;;;;;;;5036139;28;20044;-75
2022/01/13 02:47:08;;;;;;;2.92;1.30;;;;;;;;;;5059534;28;20052;-75
2022/01/13 02:49:36;;;;;;;5.95;1.50;;;;;;;;;;5056310;28;20024;-76
2022/01/13 02:52:04;;;;;;;4.20;1.23;;;;;;;;;;5053978;28;20029;-75
2022/01/13 02:54:31;;;;;;;5.03;2.20;;;;;;;;;;5053843;28;20017;-75
2022/01/13 02:56:58;;;;;;;3.40;1.15;;;;;;;;;;5052520;28;20411;-76
2022/01/13 02:59:26;;;;;;;4.70;1.23;;;;;;;;;;5054755;28;20013;-76
2022/01/13 03:01:53;;;;;;;2.83;1.27;;;;;;;;;;5058490;28;20083;-77
2022/01/13 03:04:22;;;;;;;2.90;1.15;;;;;;;;;;5054582;28;20091;-75
2022/01/13 03:06:49;;;;;;;3.30;1.23;;;;;;;;;;5052184;28;20412;-75
2022/01/13 03:09:16;;;;;;;2.53;0.95;;;;;;;;;;5054428;28;20049;-75
2022/01/13 03:11:45;;;;;;;1.63;0.88;;;;;;;;;;5053478;28;20037;-76
2022/01/13 03:14:13;;;;;;;2.00;1.00;;;;;;;;;;5053229;28;20389;-76
2022/01/13 03:16:44;;;;;;;2.78;1.20;;;;;;;;;;5053682;28;20025;-76
2022/01/13 03:19:12;;;;;;;2.28;1.10;;;;;;;;;;5054783;28;20477;-76
2022/01/13 03:21:39;;;;;;;3.13;1.20;;;;;;;;;;5055651;28;20032;-77
2022/01/13 03:24:09;;;;;;;3.95;1.88;;;;;;;;;;5052094;28;20504;-75
2022/01/13 03:26:37;;;;;;;5.20;1.42;;;;;;;;;;5053785;28;20112;-74
2022/01/13 03:31:38;;;;;;;3.72;1.15;;;;;;;;;;5053997;28;20501;-75
2022/01/13 03:34:05;;;;;;;2.50;1.17;;;;;;;;;;5052520;28;20017;-75
2022/01/13 03:36:32;;;;;;;3.35;1.52;;;;;;;;;;5053788;28;20023;-74
2022/01/13 03:38:59;;;;;;;4.68;1.10;;;;;;;;;;5053652;28;20394;-75
2022/01/13 03:41:26;;;;;;;3.42;1.10;;;;;;;;;;5054195;28;20079;-75
2022/01/13 03:43:55;;;;;;;3.15;1.25;;;;;;;;;;5053655;28;20497;-75
2022/01/13 03:46:23;;;;;;;2.90;1.20;;;;;;;;;;5054014;28;20094;-77
2022/01/13 03:48:51;;;;;;;3.17;1.00;;;;;;;;;;5053416;28;20017;-76
2022/01/13 03:51:19;;;;;;;3.55;0.90;;;;;;;;;;5052534;28;20025;-76
2022/01/13 03:53:56;;;;;;;2.67;1.05;;;;;;;;;;5054296;28;20029;-76
2022/01/13 03:56:38;;;;;;;3.33;1.02;;;;;;;;;;5051481;28;20036;-75
2022/01/13 03:59:35;;;;;;;1.88;0.80;;;;;;;;;;5053235;28;20429;-76
2022/01/13 04:02:04;;;;;;;3.08;1.05;;;;;;;;;;5054892;28;20503;-76
2022/01/13 04:04:35;;;;;;;3.42;0.80;;;;;;;;;;5057513;28;20045;-77
2022/01/13 04:07:09;;;;;;;4.55;1.45;;;;;;;;;;5056008;28;20070;-76
2022/01/13 04:09:40;;;;;;;4.30;1.77;;;;;;;;;;5056766;28;20025;-76
2022/01/13 04:12:10;;;;;;;3.00;0.80;;;;;;;;;;5054962;28;20558;-75
2022/01/13 04:14:49;;;;;;;7.13;1.20;;;;;;;;;;5055635;28;20033;-76
2022/01/13 04:17:20;;;;;;;7.65;2.08;;;;;;;;;;5058448;28;20021;-75
2022/01/13 04:19:47;;;;;;;7.97;1.52;;;;;;;;;;5056239;28;20070;-75
2022/01/13 04:22:15;;;;;;;8.02;1.80;;;;;;;;;;5056605;28;20025;-74
2022/01/13 04:24:47;;;;;;;4.78;1.33;;;;;;;;;;5056376;28;20036;-75
2022/01/13 04:27:23;;;;;;;5.10;1.13;;;;;;;;;;5054366;28;20111;-75
2022/01/13 04:30:11;;;;;;;6.38;1.40;;;;;;;;;;5056238;28;20025;-75
2022/01/13 04:32:37;;;;;;;5.80;1.13;;;;;;;;;;5054484;28;20371;-74
2022/01/13 04:35:05;;;;;;;4.45;1.08;;;;;;;;;;5055124;28;20025;-75
2022/01/13 04:37:32;;;;;;;5.28;1.48;;;;;;;;;;5057171;28;20021;-76
2022/01/13 04:40:00;;;;;;;6.43;1.23;;;;;;;;;;5055039;28;20031;-76
2022/01/13 04:42:31;;;;;;;5.35;1.00;;;;;;;;;;5054930;28;20037;-76
2022/01/13 04:44:59;;;;;;;3.80;1.25;;;;;;;;;;5054422;28;20024;-76
2022/01/13 04:47:26;;;;;;;4.78;1.13;;;;;;;;;;5054762;28;20120;-77
2022/01/13 04:49:53;;;;;;;9.88;2.05;;;;;;;;;;5055779;28;20052;-75
2022/01/13 04:52:23;;;;;;;5.63;1.58;;;;;;;;;;5056847;28;20033;-76
2022/01/13 04:54:50;;;;;;;5.78;1.30;;;;;;;;;;5056003;28;20603;-75
2022/01/13 04:57:18;;;;;;;3.35;1.15;;;;;;;;;;5055470;28;20485;-74
2022/01/13 04:59:45;;;;;;;6.57;1.55;;;;;;;;;;5056481;28;20100;-76
2022/01/13 05:02:14;;;;;;;6.03;1.63;;;;;;;;;;5059201;28;20048;-75
2022/01/13 05:04:44;;;;;;;8.32;1.30;;;;;;;;;;5056281;28;20091;-75
2022/01/13 05:07:11;;;;;;;6.50;1.30;;;;;;;;;;5055308;28;20393;-74
2022/01/13 05:09:38;;;;;;;5.40;1.10;;;;;;;;;;5055641;28;20188;-75
2022/01/13 05:12:05;;;;;;;6.97;1.30;;;;;;;;;;5054734;28;20375;-74
2022/01/13 05:14:34;;;;;;;5.30;1.25;;;;;;;;;;5055475;28;20433;-76
2022/01/13 05:17:11;;;;;;;5.22;1.20;;;;;;;;;;5056394;28;20432;-75
2022/01/13 05:19:56;;;;;;;6.47;1.13;;;;;;;;;;5055219;28;20025;-76
2022/01/13 05:22:23;;;;;;;6.90;1.73;;;;;;;;;;5055923;28;20485;-75
2022/01/13 05:24:50;;;;;;;5.07;1.30;;;;;;;;;;5054850;28;20075;-75
2022/01/13 05:27:20;;;;;;;5.90;1.10;;;;;;;;;;5057323;28;20532;-75
2022/01/13 05:29:48;;;;;;;5.53;1.30;;;;;;;;;;5058140;28;20028;-76
2022/01/13 05:32:15;;;;;;;7.20;1.33;;;;;;;;;;5055363;28;20497;-76
2022/01/13 05:34:42;;;;;;;6.63;1.85;;;;;;;;;;5053448;28;20028;-75
2022/01/13 05:37:09;;;;;;;5.07;1.23;;;;;;;;;;5053235;28;20108;-75
2022/01/13 05:39:36;;;;;;;5.22;1.25;;;;;;;;;;5055479;28;20021;-76
2022/01/13 05:42:03;;;;;;;8.13;1.17;;;;;;;;;;5054384;28;20108;-75
2022/01/13 05:44:37;;;;;;;5.53;1.10;;;;;;;;;;5054871;28;20025;-75
2022/01/13 05:47:05;;;;;;;6.22;1.20;;;;;;;;;;5054628;28;20024;-75
2022/01/13 05:49:32;;;;;;;7.93;1.05;;;;;;;;;;5053062;28;20060;-74
2022/01/13 05:52:00;;;;;;;6.25;1.17;;;;;;;;;;5052722;28;20028;-74
2022/01/13 05:54:27;;;;;;;7.72;1.13;;;;;;;;;;5053167;28;20021;-76
2022/01/13 05:56:54;;;;;;;7.85;1.70;;;;;;;;;;5052581;28;20056;-77
2022/01/13 05:59:23;;;;;;;6.97;1.17;;;;;;;;;;5052692;28;20068;-76
2022/01/13 06:01:50;;;;;;;5.68;0.82;;;;;;;;;;5036317;28;20080;-74
2022/01/13 06:04:17;;;;;;;5.38;1.10;;;;;;;;;;5052464;28;20048;-75
2022/01/13 06:06:45;;;;;;;5.45;1.10;;;;;;;;;;5053678;28;20397;-78
2022/01/13 06:09:12;;;;;;;5.45;1.20;;;;;;;;;;5055403;28;20566;-76
2022/01/13 06:11:52;;;;;;;6.47;1.05;;;;;;;;;;5053766;28;20037;-76
2022/01/13 06:14:19;;;;;;;4.93;0.90;;;;;;;;;;5052572;28;20401;-76
2022/01/13 06:16:46;;;;;;;2.15;0.80;;;;;;;;;;5053821;28;20032;-77
2022/01/13 06:19:13;;;;;;;5.13;0.93;;;;;;;;;;5053783;28;20025;-76
2022/01/13 06:21:40;;;;;;;3.40;0.70;;;;;;;;;;5053976;28;20020;-77
2022/01/13 06:24:08;;;;;;;3.67;0.98;;;;;;;;;;5052038;28;20021;-77
2022/01/13 06:26:35;;;;;;;5.57;1.15;;;;;;;;;;5052786;28;20146;-77
2022/01/13 06:29:02;;;;;;;5.57;0.98;;;;;;;;;;5053083;28;20062;-77
2022/01/13 06:31:29;;;;;;;4.90;0.88;;;;;;;;;;5053316;28;20021;-73
2022/01/13 06:33:56;;;;;;;4.72;0.88;;;;;;;;;;5053398;28;20024;-76
2022/01/13 06:36:24;;;;;;;4.65;1.25;;;;;;;;;;5053231;28;20013;-75
2022/01/13 06:38:52;;;;;;;4.13;1.10;;;;;;;;;;5053175;28;20017;-75
2022/01/13 06:41:19;;;;;;;3.72;0.98;;;;;;;;;;5052000;28;20017;-74
2022/01/13 06:43:47;;;;;;;4.00;0.70;;;;;;;;;;5053159;28;20087;-74
2022/01/13 06:46:15;;;;;;;6.90;1.13;;;;;;;;;;5051801;28;20111;-74
2022/01/13 06:48:43;;;;;;;4.95;0.80;;;;;;;;;;5052889;28;20025;-74
2022/01/13 06:51:11;;;;;;;5.00;0.65;;;;;;;;;;5052839;28;20047;-76
2022/01/13 06:53:38;;;;;;;3.80;0.65;;;;;;;;;;5052866;28;20090;-76
2022/01/13 06:56:06;;;;;;;3.60;0.82;;;;;;;;;;5052898;28;20025;-74
2022/01/13 06:58:33;;;;;;;3.50;1.02;;;;;;;;;;5051665;28;20029;-75
2022/01/13 07:01:00;;;;;;;4.22;0.70;;;;;;;;;;5053040;28;20024;-76
2022/01/13 07:03:27;;;;;;;4.40;0.80;;;;;;;;;;5052543;28;20041;-75
2022/01/13 07:05:55;;;;;;;4.70;1.00;;;;;;;;;;5051712;28;20029;-75
2022/01/13 07:08:22;;;;;;;6.70;1.00;;;;;;;;;;5052717;28;20053;-74
2022/01/13 07:10:49;;;;;;;2.85;0.77;;;;;;;;;;5051445;28;20056;-74
2022/01/13 07:13:16;;;;;;;3.20;0.70;;;;;;;;;;5052319;28;20033;-74
2022/01/13 07:15:47;;;;;;;3.33;0.90;;;;;;;;;;5052971;28;20090;-76
2022/01/13 07:18:14;;;;;;;3.72;0.73;;;;;;;;;;5051639;28;20482;-75
2022/01/13 07:20:43;;;;;;;4.07;0.85;;;;;;;;;;5052919;28;20584;-75
2022/01/13 07:23:11;;;;;;;4.90;0.70;;;;;;;;;;5051546;28;20116;-75
2022/01/13 07:25:38;;;;;;;2.08;0.52;;;;;;;;;;5051678;28;20029;-74
2022/01/13 07:28:05;;;;;;;4.32;0.80;;;;;;;;;;5051486;28;20033;-75
2022/01/13 07:30:34;;;;;;;3.67;0.70;;;;;;;;;;5052625;28;20474;-75
2022/01/13 07:33:01;;;;;;;2.55;0.50;;;;;;;;;;5052624;28;20022;-75
2022/01/13 07:35:28;;;;;;;6.13;1.70;;;;;;;;;;5053873;28;20053;-75
2022/01/13 07:37:56;;;;;;;4.38;0.95;;;;;;;;;;5056603;28;20032;-75
2022/01/13 07:40:23;;;;;;;3.80;0.80;;;;;;;;;;5056349;28;20028;-75
2022/01/13 07:42:51;;;;;;;5.88;1.65;;;;;;;;;;5055234;28;20032;-74
2022/01/13 07:45:18;;;;;;;2.70;0.98;;;;;;;;;;5054969;28;20029;-76
2022/01/13 07:47:46;;;;;;;3.97;0.98;;;;;;;;;;5056376;28;20028;-75
2022/01/13 07:50:15;;;;;;;4.93;1.45;;;;;;;;;;5056348;28;20139;-75
2022/01/13 07:52:43;;;;;;;20.88;15.10;;;;;;;;;;5054852;28;20508;-75
2022/01/13 07:55:10;;;;;;;7.93;4.10;;;;;;;;;;5054708;28;20017;-76
2022/01/13 07:57:38;;;;;;;3.78;1.65;;;;;;;;;;5055984;28;20100;-75
2022/01/13 08:00:07;;;;;;;3.40;1.00;;;;;;;;;;5054880;28;20028;-75
2022/01/13 08:02:38;;;;;;;7.43;2.38;;;;;;;;;;5055990;28;20441;-75
2022/01/13 08:05:05;;;;;;;2.50;0.70;;;;;;;;;;5054153;28;20390;-73
2022/01/13 08:07:33;;;;;;;2.22;0.52;;;;;;;;;;5055794;28;20477;-75
2022/01/13 08:10:00;;;;;;;3.42;0.70;;;;;;;;;;5054339;28;20453;-75
2022/01/13 08:12:27;;;;;;;2.22;0.73;;;;;;;;;;5054295;28;20037;-75
2022/01/13 08:14:54;;;;;;;3.13;1.13;;;;;;;;;;5055599;28;20389;-75
2022/01/13 08:20:10;;;;;;;3.55;0.90;;;;;;;;;;5055904;28;20120;-75
2022/01/13 08:22:37;;;;;;;4.40;1.23;;;;;;;;;;5055699;28;20025;-75
2022/01/13 08:25:04;;;;;;;2.63;0.90;;;;;;;;;;5054155;28;20112;-76
2022/01/13 08:27:32;;;;;;;3.50;0.90;;;;;;;;;;5054351;28;20545;-76
2022/01/13 08:29:59;;;;;;;3.92;0.88;;;;;;;;;;5037931;28;20033;-75
2022/01/13 08:32:26;;;;;;;3.90;0.90;;;;;;;;;;5055329;28;20039;-75
2022/01/13 08:34:53;;;;;;;3.72;0.90;;;;;;;;;;5054281;28;20017;-75
2022/01/13 08:37:20;;;;;;;6.13;1.23;;;;;;;;;;5055215;28;20017;-75
2022/01/13 08:39:47;;;;;;;4.68;0.85;;;;;;;;;;5054084;28;20527;-75
2022/01/13 08:42:17;;;;;;;4.70;1.10;;;;;;;;;;5053903;28;20495;-77
2022/01/13 08:44:44;;;;;;;3.97;0.80;;;;;;;;;;5053960;28;20406;-74
2022/01/13 08:47:12;;;;;;;4.13;1.00;;;;;;;;;;5053744;28;20029;-74
2022/01/13 08:49:39;;;;;;;4.55;1.10;;;;;;;;;;5053734;28;20510;-75
2022/01/13 08:52:07;;;;;;;2.25;0.95;;;;;;;;;;5053379;28;20123;-74
2022/01/13 08:54:34;;;;;;;3.67;1.10;;;;;;;;;;5054884;28;20017;-75
2022/01/13 08:57:03;;;;;;;4.40;1.10;;;;;;;;;;5054819;28;20397;-75
2022/01/13 08:59:30;;;;;;;4.00;1.10;;;;;;;;;;5053429;28;20067;-76
2022/01/13 09:01:58;;;;;;;3.20;1.08;;;;;;;;;;5054507;28;20035;-76
2022/01/13 09:04:25;;;;;;;5.10;1.30;;;;;;;;;;5054427;28;20087;-74
2022/01/13 09:06:53;;;;;;;5.60;1.20;;;;;;;;;;5053486;28;20036;-75
2022/01/13 09:09:20;;;;;;;5.28;1.00;;;;;;;;;;5053465;28;20025;-75
2022/01/13 09:11:47;;;;;;;4.05;0.85;;;;;;;;;;5054611;28;20029;-74
2022/01/13 09:14:15;;;;;;;5.00;1.10;;;;;;;;;;5053360;28;20028;-74
2022/01/13 09:16:46;;;;;;;5.80;1.38;;;;;;;;;;5053323;28;20432;-73
2022/01/13 09:19:17;;;;;;;5.18;1.10;;;;;;;;;;5053253;28;20029;-74
2022/01/13 09:21:43;;;;;;;;;;;;;;;;;;5053636;28;20021;-75
2022/01/13 09:24:12;;;;;;;4.25;1.10;;;;;;;;;;5053094;28;19912;-75
2022/01/13 09:26:40;;;;;;;3.90;1.20;;;;;;;;;;5054443;28;20421;-74
2022/01/13 09:29:08;;;;;;;4.55;1.20;;;;;;;;;;5052778;28;20037;-74
2022/01/13 09:31:36;;;;;;;5.72;1.20;;;;;;;;;;5053081;28;20100;-74
2022/01/13 09:34:05;;;;;;;4.15;1.20;;;;;;;;;;5053068;28;20049;-75
2022/01/13 09:36:36;;;;;;;9.75;1.30;;;;;;;;;;5054150;28;20044;-74
2022/01/13 09:39:04;;;;;;;7.50;1.30;;;;;;;;;;5053956;28;20021;-74
2022/01/13 09:41:32;;;;;;;7.63;1.30;;;;;;;;;;5053920;28;20021;-75
2022/01/13 09:44:00;;;;;;;5.90;1.35;;;;;;;;;;5054149;28;20013;-75
2022/01/13 09:46:27;;;;;;;7.00;1.80;;;;;;;;;;5052564;28;20486;-75
2022/01/13 09:48:55;;;;;;;8.23;1.65;;;;;;;;;;5053981;28;20382;-75
2022/01/13 09:51:26;;;;;;;8.05;1.25;;;;;;;;;;5053848;28;20021;-74
2022/01/13 09:53:53;;;;;;;3.95;1.33;;;;;;;;;;5052474;28;20029;-76
2022/01/13 09:56:21;;;;;;;6.95;1.38;;;;;;;;;;5053890;28;20021;-73
2022/01/13 09:58:48;;;;;;;4.18;1.50;;;;;;;;;;5052173;28;20028;-75
2022/01/13 10:01:16;;;;;;;5.53;1.30;;;;;;;;;;5052477;28;20021;-73
2022/01/13 10:03:43;;;;;;;3.20;1.30;;;;;;;;;;5053469;28;20033;-75
2022/01/13 10:06:15;;;;;;;5.80;1.50;;;;;;;;;;5053715;28;20025;-74
2022/01/13 10:08:52;;;;;;;6.63;1.55;;;;;;;;;;5052425;28;20021;-75
2022/01/13 10:11:36;;;;;;;8.32;1.75;;;;;;;;;;5052510;28;20036;-73
2022/01/13 10:14:03;;;;;;;6.90;1.27;;;;;;;;;;5052595;28;20053;-75
2022/01/13 10:16:30;;;;;;;3.53;0.88;;;;;;;;;;5053375;28;20055;-74
2022/01/13 10:18:58;;;;;;;6.43;1.30;;;;;;;;;;5053440;28;20151;-74
2022/01/13 10:21:25;;;;;;;5.50;1.10;;;;;;;;;;5052285;28;20036;-74
2022/01/13 10:24:12;;;;;;;6.78;1.33;;;;;;;;;;5052147;28;20053;-75
2022/01/13 10:27:15;;;;;;;5.88;1.67;;;;;;;;;;5050838;28;20037;-74
2022/01/13 10:29:49;;;;;;;7.68;1.20;;;;;;;;;;5053341;28;20067;-75
2022/01/13 10:32:18;;;;;;;6.20;1.10;;;;;;;;;;5053218;28;20074;-75
2022/01/13 10:34:47;;;;;;;5.03;1.20;;;;;;;;;;5053350;28;20041;-75
2022/01/13 10:37:14;;;;;;;4.80;0.95;;;;;;;;;;5053307;28;20366;-75
2022/01/13 10:39:49;;;;;;;6.97;1.30;;;;;;;;;;5052052;28;20031;-74
2022/01/13 10:45:07;;;;;;;6.00;1.20;;;;;;;;;;5053298;28;20025;-75
2022/01/13 10:47:35;;;;;;;8.35;1.10;;;;;;;;;;5051803;28;20106;-75
2022/01/13 10:50:04;;;;;;;7.53;1.27;;;;;;;;;;5052835;28;20044;-75
2022/01/13 10:52:32;;;;;;;6.65;1.00;;;;;;;;;;5052930;28;20025;-74
2022/01/13 10:55:04;;;;;;;6.15;1.13;;;;;;;;;;5053126;28;20089;-75
2022/01/13 10:57:31;;;;;;;7.95;1.35;;;;;;;;;;5053019;28;20025;-74
2022/01/13 10:59:59;;;;;;;6.82;1.38;;;;;;;;;;5053087;28;20493;-74
2022/01/13 11:02:26;;;;;;;7.40;1.40;;;;;;;;;;5052868;28;20029;-74
2022/01/13 11:04:54;;;;;;;4.32;1.10;;;;;;;;;;5052549;28;20065;-75
2022/01/13 11:07:27;;;;;;;6.30;1.42;;;;;;;;;;5051657;28;20108;-75
2022/01/13 11:09:55;;;;;;;6.13;1.52;;;;;;;;;;5053364;28;20032;-74
2022/01/13 11:12:38;;;;;;;8.63;1.50;;;;;;;;;;5055836;28;20075;-74
2022/01/13 11:15:06;;;;;;;4.43;1.20;;;;;;;;;;5056989;28;20024;-74
2022/01/13 11:17:39;;;;;;;8.00;1.30;;;;;;;;;;5055747;28;20509;-74
2022/01/13 11:20:08;;;;;;;8.48;1.50;;;;;;;;;;5055623;28;20044;-75
2022/01/13 11:22:40;;;;;;;11.18;1.50;;;;;;;;;;5056869;28;20048;-74
2022/01/13 11:25:08;;;;;;;6.13;1.33;;;;;;;;;;5056727;28;20478;-74
2022/01/13 11:27:36;;;;;;;8.02;1.77;;;;;;;;;;5055351;28;20021;-74
2022/01/13 11:30:07;;;;;;;6.40;1.15;;;;;;;;;;5056753;28;20085;-75
2022/01/13 11:32:34;;;;;;;8.48;1.23;;;;;;;;;;5055285;28;20581;-75
2022/01/13 11:35:02;;;;;;;4.53;1.00;;;;;;;;;;5055314;28;20028;-75
2022/01/13 11:37:30;;;;;;;6.45;1.00;;;;;;;;;;5055203;28;20052;-75
2022/01/13 11:39:58;;;;;;;3.30;0.82;;;;;;;;;;5056483;28;20043;-74
2022/01/13 11:42:25;;;;;;;4.80;0.90;;;;;;;;;;5056664;28;20570;-75
2022/01/13 11:45:12;;;;;;;6.60;1.10;;;;;;;;;;5055142;28;20025;-74
2022/01/13 11:47:40;;;;;;;4.05;0.80;;;;;;;;;;5055019;28;20025;-74
2022/01/13 11:50:15;;;;;;;2.65;0.85;;;;;;;;;;5056340;28;20371;-73
2022/01/13 11:52:52;;;;;;;5.70;1.20;;;;;;;;;;5054998;28;20481;-74
2022/01/13 11:55:20;;;;;;;5.13;1.17;;;;;;;;;;5056225;28;20017;-74
2022/01/13 11:57:47;;;;;;;9.82;1.10;;;;;;;;;;5056126;28;20013;-74
2022/01/13 12:00:17;;;;;;;5.70;0.98;;;;;;;;;;5054938;28;20036;-75
2022/01/13 12:02:45;;;;;;;4.43;1.00;;;;;;;;;;5054862;28;20021;-74
2022/01/13 12:05:16;;;;;;;3.17;0.93;;;;;;;;;;5054823;28;20045;-73
2022/01/13 12:07:44;;;;;;;7.50;1.00;;;;;;;;;;5054752;28;20075;-74
2022/01/13 12:10:31;;;;;;;7.40;1.20;;;;;;;;;;5054887;28;20119;-74
2022/01/13 12:12:59;;;;;;;7.60;1.17;;;;;;;;;;5054487;28;20029;-74
2022/01/13 12:15:27;;;;;;;5.28;1.30;;;;;;;;;;5054780;28;20092;-73
2022/01/13 12:18:00;;;;;;;5.78;1.25;;;;;;;;;;5054716;28;20086;-74
2022/01/13 12:20:48;;;;;;;6.97;1.35;;;;;;;;;;5054685;28;20420;-74
2022/01/13 12:23:33;;;;;;;8.45;1.60;;;;;;;;;;5053371;28;20485;-73
2022/01/13 12:26:00;;;;;;;8.70;1.70;;;;;;;;;;5053269;28;20025;-74
2022/01/13 12:28:28;;;;;;;8.65;1.52;;;;;;;;;;5054677;28;20025;-74
2022/01/13 12:30:55;;;;;;;7.25;1.17;;;;;;;;;;5053260;28;20094;-74
2022/01/13 12:33:32;;;;;;;5.13;1.33;;;;;;;;;;5054484;28;20401;-74
2022/01/13 12:35:59;;;;;;;7.53;1.30;;;;;;;;;;5053272;28;20045;-74
2022/01/13 12:38:27;;;;;;;5.85;1.17;;;;;;;;;;5054454;28;20028;-74
2022/01/13 12:41:02;;;;;;;6.15;1.48;;;;;;;;;;5053251;28;20021;-74
2022/01/13 12:46:14;;;;;;;6.32;1.30;;;;;;;;;;5054123;28;20082;-74
2022/01/13 12:48:43;;;;;;;5.53;1.15;;;;;;;;;;5054220;28;20078;-74
2022/01/13 12:51:17;;;;;;;8.25;0.98;;;;;;;;;;5054088;28;20474;-73
2022/01/13 12:53:45;;;;;;;5.00;1.05;;;;;;;;;;5052620;28;20032;-74
2022/01/13 12:56:14;;;;;;;6.03;1.50;;;;;;;;;;5052608;28;20033;-74
2022/01/13 12:58:42;;;;;;;8.32;1.35;;;;;;;;;;5052726;28;20025;-73
2022/01/13 13:01:11;;;;;;;5.28;1.20;;;;;;;;;;5053984;28;20138;-73
2022/01/13 13:03:39;;;;;;;4.07;1.23;;;;;;;;;;4920230;28;3337187;-73
2022/01/13 13:06:12;;;;;;;6.80;1.95;;;;;;;;;;5055048;28;20045;-74
2022/01/13 13:08:42;;;;;;;3.47;0.98;;;;;;;;;;5054960;28;20033;-74
2022/01/13 13:11:09;;;;;;;4.45;1.35;;;;;;;;;;5054863;28;20392;-74
2022/01/13 13:13:46;;;;;;;6.13;1.10;;;;;;;;;;5053603;28;20059;-75
2022/01/13 13:16:14;;;;;;;5.68;1.40;;;;;;;;;;5054864;28;20025;-73
2022/01/13 13:18:41;;;;;;;4.00;1.02;;;;;;;;;;5053498;28;20455;-74
2022/01/13 13:21:10;;;;;;;3.47;1.17;;;;;;;;;;5053362;28;20025;-74
2022/01/13 13:23:38;;;;;;;4.35;1.13;;;;;;;;;;5053317;28;20520;-74
2022/01/13 13:26:08;;;;;;;5.07;0.90;;;;;;;;;;5054559;28;20025;-74
2022/01/13 13:28:42;;;;;;;3.60;0.90;;;;;;;;;;5054568;28;20453;-74
2022/01/13 13:31:17;;;;;;;5.00;0.77;;;;;;;;;;5054535;28;20025;-74
2022/01/13 13:33:46;;;;;;;4.00;0.85;;;;;;;;;;5052584;28;20025;-74
2022/01/13 13:36:15;;;;;;;4.00;0.90;;;;;;;;;;5054415;28;20018;-75
2022/01/13 13:39:02;;;;;;;4.32;1.15;;;;;;;;;;5054370;28;20021;-75
2022/01/13 13:41:31;;;;;;;4.75;1.50;;;;;;;;;;5052971;28;20104;-75
2022/01/13 13:43:59;;;;;;;7.85;1.50;;;;;;;;;;5052968;28;20436;-75
2022/01/13 13:46:27;;;;;;;5.65;1.30;;;;;;;;;;5054114;28;20021;-76
2022/01/13 13:48:58;;;;;;;3.53;1.40;;;;;;;;;;5052943;28;20090;-76
2022/01/13 13:51:26;;;;;;;3.40;1.10;;;;;;;;;;5052651;28;20027;-76
2022/01/13 13:54:12;;;;;;;4.13;1.40;;;;;;;;;;5052651;28;20400;-76
2022/01/13 13:56:40;;;;;;;3.60;0.90;;;;;;;;;;5052818;28;20402;-76
2022/01/13 13:59:12;;;;;;;3.22;0.88;;;;;;;;;;5053977;28;20013;-76
2022/01/13 14:01:39;;;;;;;3.05;0.90;;;;;;;;;;5052696;28;20021;-76
2022/01/13 14:04:06;;;;;;;3.45;1.20;;;;;;;;;;5052389;28;20053;-76
2022/01/13 14:06:41;;;;;;;2.92;1.02;;;;;;;;;;5052646;28;20025;-76
2022/01/13 14:09:08;;;;;;;4.45;1.40;;;;;;;;;;5053711;28;20024;-76
2022/01/13 14:11:46;;;;;;;2.83;1.13;;;;;;;;;;5052530;28;20052;-75
2022/01/13 14:14:14;;;;;;;5.30;1.48;;;;;;;;;;5052502;28;20052;-76
2022/01/13 14:16:41;;;;;;;4.25;1.25;;;;;;;;;;5052466;28;20021;-76
2022/01/13 14:19:12;;;;;;;4.32;1.10;;;;;;;;;;5052339;28;20079;-76
2022/01/13 14:22:05;;;;;;;3.83;1.27;;;;;;;;;;5052254;28;20090;-76
2022/01/13 14:24:34;;;;;;;4.65;1.25;;;;;;;;;;5051369;28;20025;-76
2022/01/13 14:27:14;;;;;;;3.28;1.27;;;;;;;;;;5052225;28;20047;-76
2022/01/13 14:29:42;;;;;;;2.65;0.90;;;;;;;;;;5053500;28;20024;-77
2022/01/13 14:32:16;;;;;;;5.38;1.17;;;;;;;;;;5053352;28;20031;-76
2022/01/13 14:34:48;;;;;;;3.20;1.00;;;;;;;;;;5053464;28;20021;-76
2022/01/13 14:37:15;;;;;;;4.25;1.20;;;;;;;;;;5052042;28;20029;-76
2022/01/13 14:39:43;;;;;;;2.92;0.90;;;;;;;;;;5051784;28;20032;-76
2022/01/13 14:42:14;;;;;;;5.80;0.93;;;;;;;;;;5051963;28;20056;-76
2022/01/13 14:44:43;;;;;;;5.53;1.42;;;;;;;;;;5051967;28;20028;-76
2022/01/13 14:47:10;;;;;;;6.57;1.20;;;;;;;;;;5035714;28;20509;-76
2022/01/13 14:49:39;;;;;;;4.05;1.20;;;;;;;;;;5053266;28;20021;-75
2022/01/13 14:52:07;;;;;;;3.90;1.35;;;;;;;;;;5053335;28;20064;-75
2022/01/13 14:54:35;;;;;;;5.47;1.42;;;;;;;;;;5051881;28;20367;-76
2022/01/13 14:57:03;;;;;;;6.03;1.50;;;;;;;;;;5051882;28;20028;-76
2022/01/13 14:59:33;;;;;;;4.82;1.30;;;;;;;;;;5053148;28;20170;-76
2022/01/13 15:02:01;;;;;;;5.55;1.73;;;;;;;;;;5053135;28;20051;-77
2022/01/13 15:04:28;;;;;;;4.03;1.63;;;;;;;;;;5052889;28;20045;-76
2022/01/13 15:06:55;;;;;;;5.78;1.10;;;;;;;;;;5051964;28;20049;-76
2022/01/13 15:09:22;;;;;;;4.20;1.20;;;;;;;;;;5051745;28;20039;-75
2022/01/13 15:11:49;;;;;;;3.58;1.35;;;;;;;;;;5052991;28;20019;-76
2022/01/13 15:14:17;;;;;;;4.10;1.30;;;;;;;;;;5053058;28;20029;-76
2022/01/13 15:16:44;;;;;;;4.30;1.50;;;;;;;;;;5053012;28;20474;-76
2022/01/13 15:19:14;;;;;;;4.63;1.50;;;;;;;;;;5053113;28;20017;-76
2022/01/13 15:21:44;;;;;;;3.40;1.27;;;;;;;;;;5053041;28;20086;-77